createdAt,value
2022-12-18T00:01:28.633Z,67.68
2022-12-18T00:03:57.177Z,71.28
2022-12-18T00:06:25.810Z,69.10
2022-12-18T00:08:53.263Z,69.78
2022-12-18T00:11:22.722Z,65.32
2022-12-18T00:13:50.682Z,69.10
2022-12-18T00:16:23.327Z,67.32
2022-12-18T00:18:51.913Z,60.53
2022-12-18T00:21:20.216Z,67.85
2022-12-18T00:23:48.643Z,64.60
2022-12-18T00:26:21.139Z,67.72
2022-12-18T00:28:50.709Z,65.07
2022-12-18T00:31:20.839Z,57.05
2022-12-18T00:33:48.526Z,54.80
2022-12-18T00:36:22.673Z,53.30
2022-12-18T00:38:52.291Z,45.83
2022-12-18T00:41:39.598Z,50.80
2022-12-18T00:44:08.590Z,53.70
2022-12-18T00:46:35.376Z,57.83
2022-12-18T00:49:02.733Z,53.30
2022-12-18T00:51:30.092Z,50.65
2022-12-18T00:53:57.119Z,52.40
2022-12-18T00:56:24.286Z,55.20
2022-12-18T00:58:51.582Z,64.25
2022-12-18T01:01:19.192Z,59.10
2022-12-18T01:03:47.566Z,63.17
2022-12-18T01:06:15.829Z,64.32
2022-12-18T01:08:43.402Z,58.88
2022-12-18T01:11:16.261Z,56.28
2022-12-18T01:13:43.821Z,54.15
2022-12-18T01:16:17.149Z,63.83
2022-12-18T01:18:44.124Z,65.15
2022-12-18T01:21:15.195Z,57.42
2022-12-18T01:23:42.524Z,61.25
2022-12-18T01:26:12.790Z,62.08
2022-12-18T01:28:41.090Z,56.90
2022-12-18T01:31:19.473Z,57.42
2022-12-18T01:33:48.683Z,52.97
2022-12-18T01:36:17.721Z,61.90
2022-12-18T01:38:44.718Z,62.65
2022-12-18T01:41:12.162Z,57.15
2022-12-18T01:43:51.361Z,57.00
2022-12-18T01:46:21.501Z,64.93
2022-12-18T01:48:50.623Z,60.78
2022-12-18T01:51:18.573Z,66.70
2022-12-18T01:53:47.048Z,63.28
2022-12-18T01:56:16.746Z,60.42
2022-12-18T01:58:54.948Z,64.15
2022-12-18T02:01:24.450Z,60.17
2022-12-18T02:03:52.931Z,64.97
2022-12-18T02:06:19.649Z,55.30
2022-12-18T02:09:21.566Z,62.10
2022-12-18T02:12:19.006Z,61.45
2022-12-18T02:14:57.316Z,67.50
2022-12-18T02:17:35.348Z,64.07
2022-12-18T02:20:23.885Z,61.67
2022-12-18T02:23:33.244Z,63.58
2022-12-18T02:26:08.686Z,61.85
2022-12-18T02:28:57.579Z,58.85
2022-12-18T02:31:31.165Z,64.82
2022-12-18T02:34:03.178Z,58.25
2022-12-18T02:36:38.256Z,55.60
2022-12-18T02:39:07.972Z,59.75
2022-12-18T02:41:38.087Z,61.17
2022-12-18T02:44:12.725Z,65.85
2022-12-18T02:46:44.370Z,61.92
2022-12-18T02:49:32.836Z,61.10
2022-12-18T02:52:00.728Z,58.63
2022-12-18T02:54:56.583Z,59.92
2022-12-18T02:57:27.752Z,58.85
2022-12-18T03:00:06.930Z,61.83
2022-12-18T03:02:58.544Z,59.55
2022-12-18T03:05:36.641Z,67.95
2022-12-18T03:08:09.575Z,56.67
2022-12-18T03:10:53.042Z,62.42
2022-12-18T03:13:32.590Z,62.45
2022-12-18T03:16:02.370Z,61.38
2022-12-18T03:18:55.817Z,56.25
2022-12-18T03:21:30.942Z,61.63
2022-12-18T03:23:58.789Z,59.22
2022-12-18T03:26:28.912Z,61.55
2022-12-18T03:29:36.636Z,59.15
2022-12-18T03:32:16.851Z,61.50
2022-12-18T03:34:47.782Z,60.90
2022-12-18T03:37:16.625Z,56.95
2022-12-18T03:39:43.600Z,66.25
2022-12-18T03:42:25.605Z,62.90
2022-12-18T03:45:09.007Z,56.72
2022-12-18T03:47:46.719Z,60.58
2022-12-18T03:50:27.442Z,67.95
2022-12-18T03:53:00.518Z,62.72
2022-12-18T03:55:34.391Z,70.20
2022-12-18T03:58:07.320Z,72.15
2022-12-18T04:00:50.784Z,63.85
2022-12-18T04:03:25.326Z,73.47
2022-12-18T04:05:54.572Z,71.18
2022-12-18T04:08:23.335Z,73.40
2022-12-18T04:11:01.590Z,64.10
2022-12-18T04:13:36.696Z,74.30
2022-12-18T04:16:07.524Z,66.82
2022-12-18T04:18:35.312Z,75.10
2022-12-18T04:21:03.470Z,70.65
2022-12-18T04:23:30.416Z,69.10
2022-12-18T04:25:59.373Z,66.68
2022-12-18T04:28:44.872Z,59.63
2022-12-18T04:31:12.922Z,66.53
2022-12-18T04:33:40.697Z,70.63
2022-12-18T04:36:08.961Z,64.72
2022-12-18T04:38:35.824Z,64.22
2022-12-18T04:41:08.009Z,64.85
2022-12-18T04:43:37.054Z,69.75
2022-12-18T04:46:08.628Z,70.15
2022-12-18T04:48:36.263Z,70.53
2022-12-18T04:51:03.719Z,62.67
2022-12-18T04:53:31.034Z,58.70
2022-12-18T04:56:04.705Z,68.82
2022-12-18T04:58:31.625Z,72.68
2022-12-18T05:00:58.466Z,62.00
2022-12-18T05:03:25.240Z,70.28
2022-12-18T05:05:52.418Z,68.53
2022-12-18T05:08:19.566Z,65.10
2022-12-18T05:10:46.841Z,69.85
2022-12-18T05:13:13.606Z,76.13
2022-12-18T05:15:40.705Z,70.13
2022-12-18T05:18:07.814Z,66.68
2022-12-18T05:20:34.635Z,66.57
2022-12-18T05:23:01.405Z,70.85
2022-12-18T05:25:28.257Z,81.97
2022-12-18T05:27:55.193Z,71.28
2022-12-18T05:30:22.045Z,74.95
2022-12-18T05:32:48.798Z,73.53
2022-12-18T05:35:15.675Z,77.97
2022-12-18T05:37:43.370Z,70.15
2022-12-18T05:40:11.129Z,73.85
2022-12-18T05:42:39.240Z,72.97
2022-12-18T05:45:06.705Z,72.47
2022-12-18T05:47:33.778Z,79.10
2022-12-18T05:50:00.541Z,82.30
2022-12-18T05:52:27.835Z,82.03
2022-12-18T05:54:54.592Z,81.72
2022-12-18T05:57:21.541Z,79.75
2022-12-18T05:59:48.267Z,80.55
2022-12-18T06:02:15.266Z,80.03
2022-12-18T06:04:42.218Z,92.30
2022-12-18T06:07:09.426Z,85.97
2022-12-18T06:09:36.193Z,79.15
2022-12-18T06:12:02.943Z,90.10
2022-12-18T06:14:29.865Z,88.28
2022-12-18T06:16:56.684Z,80.65
2022-12-18T06:19:23.687Z,70.15
2022-12-18T06:21:51.208Z,83.15
2022-12-18T06:24:18.179Z,82.38
2022-12-18T06:26:44.959Z,86.25
2022-12-18T06:29:11.921Z,79.78
2022-12-18T06:31:39.051Z,75.82
2022-12-18T06:34:06.080Z,77.18
2022-12-18T06:36:33.230Z,83.70
2022-12-18T06:39:00.116Z,86.95
2022-12-18T06:41:27.484Z,80.93
2022-12-18T06:43:59.355Z,77.25
2022-12-18T06:46:27.486Z,84.30
2022-12-18T06:48:54.227Z,86.13
2022-12-18T06:51:23.119Z,87.85
2022-12-18T06:53:49.998Z,80.55
2022-12-18T06:56:17.287Z,83.93
2022-12-18T06:58:44.604Z,89.10
2022-12-18T07:01:12.864Z,81.20
2022-12-18T07:03:41.902Z,90.80
2022-12-18T07:06:16.072Z,84.68
2022-12-18T07:08:42.948Z,80.07
2022-12-18T07:11:09.772Z,78.90
2022-12-18T07:13:36.656Z,78.55
2022-12-18T07:16:18.402Z,82.65
2022-12-18T07:18:49.622Z,80.82
2022-12-18T07:21:19.880Z,76.00
2022-12-18T07:23:48.972Z,82.55
2022-12-18T07:26:18.884Z,77.78
2022-12-18T07:28:45.744Z,81.13
2022-12-18T07:31:15.717Z,85.18
2022-12-18T07:33:44.345Z,86.35
2022-12-18T07:36:12.465Z,87.90
2022-12-18T07:38:39.249Z,79.35
2022-12-18T07:41:12.309Z,71.03
2022-12-18T07:43:40.651Z,68.25
2022-12-18T07:46:10.280Z,61.75
2022-12-18T07:48:37.214Z,69.78
2022-12-18T07:51:06.400Z,67.53
2022-12-18T07:53:34.919Z,70.05
2022-12-18T07:58:55.128Z,84.30
2022-12-18T08:01:22.163Z,79.43
2022-12-18T08:03:49.007Z,76.03
2022-12-18T08:06:17.998Z,80.22
2022-12-18T08:08:44.798Z,75.68
2022-12-18T08:11:11.589Z,81.88
2022-12-18T08:13:38.697Z,89.03
2022-12-18T08:16:07.972Z,78.53
2022-12-18T08:18:38.617Z,71.88
2022-12-18T08:21:13.362Z,79.43
2022-12-18T08:23:43.072Z,80.20
2022-12-18T08:26:11.211Z,78.05
2022-12-18T08:28:38.005Z,79.72
2022-12-18T08:31:05.154Z,74.75
2022-12-18T08:33:32.443Z,85.75
2022-12-18T08:36:00.549Z,78.55
2022-12-18T08:38:27.475Z,83.35
2022-12-18T08:41:01.639Z,84.55
2022-12-18T08:43:47.070Z,82.03
2022-12-18T08:46:17.258Z,73.63
2022-12-18T08:48:45.062Z,79.53
2022-12-18T08:51:12.052Z,75.85
2022-12-18T08:53:39.517Z,75.75
2022-12-18T08:56:07.242Z,79.95
2022-12-18T08:58:34.025Z,70.38
2022-12-18T09:01:06.845Z,70.07
2022-12-18T09:03:34.000Z,77.70
2022-12-18T09:06:00.894Z,74.18
2022-12-18T09:08:28.326Z,73.80
2022-12-18T09:10:56.111Z,69.03
2022-12-18T09:13:23.444Z,74.32
2022-12-18T09:15:52.782Z,76.90
2022-12-18T09:18:22.414Z,58.95
2022-12-18T09:20:49.258Z,70.43
2022-12-18T09:23:16.012Z,66.00
2022-12-18T09:25:42.916Z,64.93
2022-12-18T09:28:17.794Z,59.13
2022-12-18T09:30:53.590Z,68.05
2022-12-18T09:33:20.643Z,76.45
2022-12-18T09:35:47.848Z,67.70
2022-12-18T09:38:17.213Z,66.32
2022-12-18T09:40:45.347Z,64.63
2022-12-18T09:43:20.766Z,72.45
2022-12-18T09:45:56.068Z,73.32
2022-12-18T09:48:35.328Z,70.22
2022-12-18T09:51:11.914Z,69.93
2022-12-18T09:53:42.152Z,72.75
2022-12-18T09:56:17.421Z,73.97
2022-12-18T09:59:03.680Z,75.55
2022-12-18T10:01:41.578Z,80.97
2022-12-18T10:04:11.569Z,63.33
2022-12-18T10:06:53.597Z,70.63
2022-12-18T10:09:26.425Z,65.13
2022-12-18T10:12:11.836Z,68.03
2022-12-18T10:15:02.597Z,62.47
2022-12-18T10:17:36.182Z,64.15
2022-12-18T10:20:14.612Z,70.15
2022-12-18T10:22:50.737Z,67.75
2022-12-18T10:25:20.500Z,64.35
2022-12-18T10:27:47.788Z,67.95
2022-12-18T10:30:16.817Z,60.47
2022-12-18T10:32:43.841Z,66.68
2022-12-18T10:35:28.836Z,67.55
2022-12-18T10:38:13.625Z,63.55
2022-12-18T10:41:03.391Z,65.20
2022-12-18T10:43:32.563Z,60.67
2022-12-18T10:46:06.373Z,69.55
2022-12-18T10:48:40.605Z,67.78
2022-12-18T10:51:13.316Z,66.28
2022-12-18T10:53:43.576Z,66.38
2022-12-18T10:56:10.658Z,62.15
2022-12-18T10:58:39.704Z,72.63
2022-12-18T11:01:16.610Z,67.40
2022-12-18T11:03:46.647Z,63.25
2022-12-18T11:06:19.110Z,64.30
2022-12-18T11:08:59.978Z,57.05
2022-12-18T11:11:26.758Z,64.32
2022-12-18T11:14:04.538Z,62.75
2022-12-18T11:16:57.896Z,66.25
2022-12-18T11:19:34.483Z,58.83
2022-12-18T11:22:04.566Z,61.20
2022-12-18T11:24:35.645Z,58.90
2022-12-18T11:27:06.932Z,59.35
2022-12-18T11:29:44.816Z,62.38
2022-12-18T11:32:16.294Z,52.70
2022-12-18T11:34:48.209Z,61.60
2022-12-18T11:37:16.752Z,59.60
2022-12-18T11:39:50.924Z,66.38
2022-12-18T11:42:44.428Z,64.75
2022-12-18T11:45:14.133Z,68.97
2022-12-18T11:48:04.788Z,64.57
2022-12-18T11:50:32.334Z,65.55
2022-12-18T11:53:04.210Z,61.03
2022-12-18T11:55:55.082Z,68.72
2022-12-18T11:58:40.353Z,61.08
2022-12-18T12:01:07.349Z,56.25
2022-12-18T12:03:52.247Z,60.42
2022-12-18T12:06:35.270Z,61.75
2022-12-18T12:09:07.915Z,60.38
2022-12-18T12:11:48.844Z,60.60
2022-12-18T12:14:40.481Z,59.60
2022-12-18T12:17:52.132Z,61.55
2022-12-18T12:20:36.034Z,62.45
2022-12-18T12:23:15.809Z,59.42
2022-12-18T12:25:52.826Z,67.20
2022-12-18T12:28:44.286Z,63.20
2022-12-18T12:31:26.427Z,62.17
2022-12-18T12:34:08.920Z,63.00
2022-12-18T12:37:02.949Z,64.68
2022-12-18T12:39:37.620Z,64.65
2022-12-18T12:42:35.305Z,63.05
2022-12-18T12:45:04.374Z,63.05
2022-12-18T12:47:41.776Z,64.88
2022-12-18T12:50:16.509Z,68.72
2022-12-18T12:52:54.414Z,68.40
2022-12-18T12:55:26.084Z,72.68
2022-12-18T12:58:21.377Z,65.90
2022-12-18T13:01:34.355Z,61.72
2022-12-18T13:04:19.997Z,73.65
2022-12-18T13:06:49.189Z,66.65
2022-12-18T13:09:16.720Z,76.45
2022-12-18T13:12:05.324Z,72.40
2022-12-18T13:14:42.130Z,76.88
2022-12-18T13:17:21.827Z,79.15
2022-12-18T13:20:04.953Z,73.20
2022-12-18T13:22:39.336Z,81.57
2022-12-18T13:25:39.038Z,79.13
2022-12-18T13:28:10.809Z,72.78
2022-12-18T13:31:03.826Z,80.88
2022-12-18T13:33:30.552Z,66.47
2022-12-18T13:36:03.567Z,70.47
2022-12-18T13:38:33.601Z,69.78
2022-12-18T13:41:01.148Z,72.00
2022-12-18T13:43:40.751Z,74.18
2022-12-18T13:46:26.666Z,70.80
2022-12-18T13:48:58.690Z,68.80
2022-12-18T13:51:27.176Z,70.93
2022-12-18T13:54:12.103Z,67.47
2022-12-18T13:56:45.292Z,68.85
2022-12-18T13:59:16.633Z,76.32
2022-12-18T14:01:51.732Z,73.20
2022-12-18T14:04:30.644Z,71.57
2022-12-18T14:07:03.833Z,76.70
2022-12-18T14:09:36.931Z,73.80
2022-12-18T14:12:23.321Z,75.78
2022-12-18T14:14:53.145Z,76.70
2022-12-18T14:17:23.963Z,75.90
2022-12-18T14:19:52.417Z,81.80
2022-12-18T14:22:32.951Z,83.40
2022-12-18T14:25:14.831Z,82.07
2022-12-18T14:28:07.827Z,83.05
2022-12-18T14:30:43.817Z,83.45
2022-12-18T14:33:21.284Z,83.35
2022-12-18T14:36:04.857Z,84.28
2022-12-18T14:38:33.096Z,83.47
2022-12-18T14:41:17.572Z,80.55
2022-12-18T14:43:47.159Z,82.55
2022-12-18T14:46:37.336Z,77.75
2022-12-18T14:49:26.202Z,82.93
2022-12-18T14:52:28.027Z,90.32
2022-12-18T14:54:55.012Z,83.93
2022-12-18T14:57:29.635Z,82.25
2022-12-18T15:00:16.042Z,81.40
2022-12-18T15:02:43.877Z,86.32
2022-12-18T15:05:13.879Z,86.90
2022-12-18T15:08:00.971Z,85.68
2022-12-18T15:10:31.240Z,91.32
2022-12-18T15:12:58.021Z,83.40
2022-12-18T15:15:34.148Z,91.78
2022-12-18T15:18:02.833Z,77.90
2022-12-18T15:20:33.832Z,84.57
2022-12-18T15:23:00.814Z,97.57
2022-12-18T15:25:37.553Z,101.70
2022-12-18T15:28:15.846Z,93.68
2022-12-18T15:31:18.659Z,99.85
2022-12-18T15:33:53.785Z,99.32
2022-12-18T15:36:26.540Z,100.72
2022-12-18T15:38:56.152Z,96.47
2022-12-18T15:41:33.631Z,95.25
2022-12-18T15:44:02.017Z,99.78
2022-12-18T15:46:28.852Z,96.50
2022-12-18T15:49:01.730Z,93.50
2022-12-18T15:51:37.283Z,103.63
2022-12-18T15:54:17.136Z,100.72
2022-12-18T15:57:02.860Z,90.03
2022-12-18T15:59:29.685Z,100.68
2022-12-18T16:01:57.679Z,101.25
2022-12-18T16:04:25.702Z,98.57
2022-12-18T16:07:14.482Z,91.10
2022-12-18T16:09:42.872Z,91.63
2022-12-18T16:12:22.151Z,93.95
2022-12-18T16:14:49.137Z,100.30
2022-12-18T16:17:16.596Z,102.13
2022-12-18T16:19:43.412Z,96.22
2022-12-18T16:22:24.719Z,80.55
2022-12-18T16:24:53.833Z,89.60
2022-12-18T16:27:21.422Z,96.93
2022-12-18T16:29:48.474Z,92.93
2022-12-18T16:32:19.579Z,93.78
2022-12-18T16:34:47.139Z,96.97
2022-12-18T16:37:15.982Z,94.70
2022-12-18T16:39:43.977Z,90.63
2022-12-18T16:42:18.322Z,89.78
2022-12-18T16:44:45.673Z,96.15
2022-12-18T16:47:15.270Z,87.40
2022-12-18T16:49:45.822Z,101.82
2022-12-18T16:52:13.926Z,97.60
2022-12-18T16:54:40.805Z,94.78
2022-12-18T16:57:07.710Z,102.85
2022-12-18T16:59:35.773Z,99.00
2022-12-18T17:02:03.312Z,98.72
2022-12-18T17:04:30.274Z,93.28
2022-12-18T17:07:00.265Z,96.80
2022-12-18T17:09:27.105Z,99.97
2022-12-18T17:11:54.701Z,98.00
2022-12-18T17:14:23.960Z,102.18
2022-12-18T17:17:19.221Z,95.80
2022-12-18T17:19:39.651Z,100.13
2022-12-18T17:22:08.135Z,93.97
2022-12-18T17:24:35.770Z,91.97
2022-12-18T17:27:03.966Z,105.20
2022-12-18T17:29:30.969Z,103.63
2022-12-18T17:32:00.160Z,94.90
2022-12-18T17:34:30.523Z,95.00
2022-12-18T17:36:58.001Z,103.55
2022-12-18T17:39:24.863Z,100.63
2022-12-18T17:41:51.810Z,106.35
2022-12-18T17:44:18.765Z,96.53
2022-12-18T17:46:46.650Z,104.90
2022-12-18T17:49:13.980Z,100.18
2022-12-18T17:51:43.406Z,94.32
2022-12-18T17:54:11.212Z,92.18
2022-12-18T17:56:39.158Z,98.15
2022-12-18T17:59:07.041Z,96.05
2022-12-18T18:01:36.361Z,94.32
2022-12-18T18:04:05.783Z,91.88
2022-12-18T18:06:32.748Z,96.00
2022-12-18T18:09:01.659Z,99.68
2022-12-18T18:11:47.178Z,93.65
2022-12-18T18:14:18.236Z,95.88
2022-12-18T18:16:49.407Z,92.70
2022-12-18T18:19:18.668Z,96.00
2022-12-18T18:21:47.608Z,97.03
2022-12-18T18:24:17.576Z,91.60
2022-12-18T18:26:46.442Z,88.75
2022-12-18T18:29:19.247Z,99.20
2022-12-18T18:31:46.366Z,98.07
2022-12-18T18:34:25.137Z,96.68
2022-12-18T18:36:52.278Z,92.40
2022-12-18T18:39:19.799Z,98.53
2022-12-18T18:41:48.263Z,109.97
2022-12-18T18:44:16.313Z,89.20
2022-12-18T18:46:43.615Z,96.50
2022-12-18T18:49:10.637Z,97.57
2022-12-18T18:51:37.433Z,95.20
2022-12-18T18:54:04.517Z,99.13
2022-12-18T18:56:56.529Z,98.47
2022-12-18T18:59:19.260Z,85.97
2022-12-18T19:01:50.558Z,92.65
2022-12-18T19:04:17.466Z,102.18
2022-12-18T19:06:47.650Z,91.90
2022-12-18T19:09:15.589Z,91.22
2022-12-18T19:12:01.031Z,91.57
2022-12-18T19:14:27.900Z,91.07
2022-12-18T19:16:54.758Z,95.97
2022-12-18T19:19:22.508Z,86.93
2022-12-18T19:21:50.058Z,92.03
2022-12-18T19:24:16.861Z,94.43
2022-12-18T19:26:43.850Z,89.35
2022-12-18T19:29:14.586Z,93.70
2022-12-18T19:31:41.656Z,87.35
2022-12-18T19:34:09.586Z,89.13
2022-12-18T19:36:38.444Z,90.90
2022-12-18T19:39:11.710Z,94.28
2022-12-18T19:41:41.088Z,89.95
2022-12-18T19:44:10.488Z,82.60
2022-12-18T19:46:40.682Z,85.25
2022-12-18T19:49:10.901Z,87.35
2022-12-18T19:51:38.977Z,92.35
2022-12-18T19:54:05.907Z,86.05
2022-12-18T19:56:35.069Z,82.55
2022-12-18T19:59:04.304Z,84.05
2022-12-18T20:01:32.261Z,83.15
2022-12-18T20:04:01.070Z,85.32
2022-12-18T20:06:52.039Z,77.60
2022-12-18T20:09:19.694Z,83.78
2022-12-18T20:11:47.699Z,85.45
2022-12-18T20:14:16.874Z,84.63
2022-12-18T20:16:51.074Z,88.47
2022-12-18T20:19:19.292Z,87.00
2022-12-18T20:21:46.895Z,88.35
2022-12-18T20:24:16.571Z,98.78
2022-12-18T20:26:43.676Z,82.65
2022-12-18T20:29:10.807Z,83.25
2022-12-18T20:31:37.693Z,86.95
2022-12-18T20:34:06.086Z,82.50
2022-12-18T20:36:36.280Z,86.57
2022-12-18T20:39:06.489Z,91.07
2022-12-18T20:41:38.399Z,95.30
2022-12-18T20:44:15.036Z,81.47
2022-12-18T20:46:52.372Z,79.65
2022-12-18T20:49:19.653Z,79.28
2022-12-18T20:51:49.229Z,84.22
2022-12-18T20:54:16.263Z,79.75
2022-12-18T20:56:43.366Z,81.88
2022-12-18T20:59:11.391Z,82.60
2022-12-18T21:01:39.101Z,83.30
2022-12-18T21:04:09.747Z,79.65
2022-12-18T21:06:36.989Z,84.97
2022-12-18T21:09:04.145Z,82.90
2022-12-18T21:11:54.004Z,79.32
2022-12-18T21:14:23.833Z,74.18
2022-12-18T21:16:51.197Z,74.72
2022-12-18T21:19:26.061Z,79.03
2022-12-18T21:21:54.591Z,75.43
2022-12-18T21:24:22.131Z,80.57
2022-12-18T21:26:49.525Z,82.10
2022-12-18T21:29:20.313Z,72.10
2022-12-18T21:31:47.873Z,74.97
2022-12-18T21:34:22.349Z,80.03
2022-12-18T21:36:49.627Z,80.20
2022-12-18T21:39:17.391Z,77.35
2022-12-18T21:42:03.904Z,86.82
2022-12-18T21:44:31.590Z,86.57
2022-12-18T21:47:21.963Z,77.60
2022-12-18T21:49:53.607Z,80.80
2022-12-18T21:52:26.254Z,86.28
2022-12-18T21:55:10.280Z,84.53
2022-12-18T21:57:39.205Z,82.28
2022-12-18T22:00:07.845Z,85.70
2022-12-18T22:02:40.666Z,76.13
2022-12-18T22:05:08.090Z,82.43
2022-12-18T22:07:34.901Z,81.90
2022-12-18T22:10:02.039Z,78.47
2022-12-18T22:12:43.121Z,76.22
2022-12-18T22:15:12.741Z,79.57
2022-12-18T22:17:45.447Z,81.72
2022-12-18T22:20:12.274Z,79.45
2022-12-18T22:22:39.027Z,77.07
2022-12-18T22:25:06.394Z,77.50
2022-12-18T22:27:33.191Z,80.15
2022-12-18T22:30:05.771Z,80.47
2022-12-18T22:32:36.950Z,73.95
2022-12-18T22:35:09.428Z,76.35
2022-12-18T22:37:37.369Z,79.88
2022-12-18T22:40:05.540Z,70.15
2022-12-18T22:42:33.252Z,71.18
2022-12-18T22:45:00.369Z,85.13
2022-12-18T22:47:30.119Z,75.22
2022-12-18T22:49:58.248Z,80.10
2022-12-18T22:52:25.532Z,77.80
2022-12-18T22:54:53.127Z,81.35
2022-12-18T22:57:21.638Z,77.35
2022-12-18T22:59:49.242Z,84.07
2022-12-18T23:02:17.712Z,84.13
2022-12-18T23:04:45.355Z,72.63
2022-12-18T23:07:12.567Z,76.90
2022-12-18T23:09:39.943Z,73.03
2022-12-18T23:12:07.252Z,74.68
2022-12-18T23:14:34.051Z,71.40
2022-12-18T23:17:01.311Z,74.68
2022-12-18T23:19:28.129Z,78.47
2022-12-18T23:21:57.147Z,76.20
2022-12-18T23:24:26.239Z,65.10
2022-12-18T23:26:53.106Z,71.63
2022-12-18T23:29:20.527Z,73.25
2022-12-18T23:31:47.406Z,76.72
2022-12-18T23:34:15.042Z,75.97
2022-12-18T23:36:46.392Z,75.47
2022-12-18T23:39:22.600Z,72.35
2022-12-18T23:41:57.309Z,74.70
2022-12-18T23:44:24.209Z,77.00
2022-12-18T23:46:51.101Z,74.53
2022-12-18T23:49:17.929Z,76.75
2022-12-18T23:51:44.674Z,73.57
2022-12-18T23:54:11.514Z,72.28
2022-12-18T23:56:38.413Z,70.07
2022-12-18T23:59:05.259Z,75.10
